sensor_id;sensor_type;location;lat;lon;timestamp;pressure;altitude;pressure_sealevel;temperature;humidity
30949;BME280;17637;51.984;21.208;2023-07-22T00:00:17;99671.97;;;18.00;63.42
30949;BME280;17637;51.984;21.208;2023-07-22T00:02:49;99692.31;;;18.07;64.04
30949;BME280;17637;51.984;21.208;2023-07-22T00:05:21;99688.88;;;18.06;63.50
30949;BME280;17637;51.984;21.208;2023-07-22T00:07:55;99697.69;;;18.13;63.93
30949;BME280;17637;51.984;21.208;2023-07-22T00:10:27;99687.25;;;18.05;64.08
30949;BME280;17637;51.984;21.208;2023-07-22T00:12:58;99701.19;;;18.06;64.50
30949;BME280;17637;51.984;21.208;2023-07-22T00:15:30;99683.84;;;17.96;64.36
30949;BME280;17637;51.984;21.208;2023-07-22T00:18:02;99687.63;;;17.94;64.84
30949;BME280;17637;51.984;21.208;2023-07-22T00:20:34;99663.88;;;17.79;64.66
30949;BME280;17637;51.984;21.208;2023-07-22T00:23:06;99693.53;;;17.96;64.79
30949;BME280;17637;51.984;21.208;2023-07-22T00:25:38;99681.53;;;17.93;64.67
30949;BME280;17637;51.984;21.208;2023-07-22T00:28:10;99707.13;;;17.99;65.33
30949;BME280;17637;51.984;21.208;2023-07-22T00:30:42;99685.84;;;17.86;65.60
30949;BME280;17637;51.984;21.208;2023-07-22T00:33:14;99705.19;;;17.93;65.93
30949;BME280;17637;51.984;21.208;2023-07-22T00:35:50;99691.91;;;17.86;66.59
30949;BME280;17637;51.984;21.208;2023-07-22T00:38:22;99693.06;;;17.84;67.40
30949;BME280;17637;51.984;21.208;2023-07-22T00:40:54;99695.88;;;17.82;68.18
30949;BME280;17637;51.984;21.208;2023-07-22T00:43:25;99685.38;;;17.82;67.93
30949;BME280;17637;51.984;21.208;2023-07-22T00:45:58;99680.81;;;17.76;67.88
30949;BME280;17637;51.984;21.208;2023-07-22T00:48:30;99695.28;;;17.72;69.30
30949;BME280;17637;51.984;21.208;2023-07-22T00:51:02;99688.22;;;17.73;69.48
30949;BME280;17637;51.984;21.208;2023-07-22T00:53:34;99660.75;;;17.52;69.40
30949;BME280;17637;51.984;21.208;2023-07-22T00:56:06;99673.88;;;17.52;70.34
30949;BME280;17637;51.984;21.208;2023-07-22T00:58:38;99689.63;;;17.60;70.11
30949;BME280;17637;51.984;21.208;2023-07-22T01:01:10;99666.22;;;17.42;70.64
30949;BME280;17637;51.984;21.208;2023-07-22T01:03:42;99662.53;;;17.20;72.09
30949;BME280;17637;51.984;21.208;2023-07-22T01:06:14;99668.19;;;17.40;70.81
30949;BME280;17637;51.984;21.208;2023-07-22T01:08:46;99685.03;;;17.54;70.56
30949;BME280;17637;51.984;21.208;2023-07-22T01:11:20;99668.84;;;17.42;70.40
30949;BME280;17637;51.984;21.208;2023-07-22T01:13:52;99691.59;;;17.58;70.27
30949;BME280;17637;51.984;21.208;2023-07-22T01:16:29;99668.75;;;17.27;72.00
30949;BME280;17637;51.984;21.208;2023-07-22T01:19:03;99671.69;;;17.32;72.18
30949;BME280;17637;51.984;21.208;2023-07-22T01:21:36;99668.06;;;17.33;71.78
30949;BME280;17637;51.984;21.208;2023-07-22T01:24:08;99671.94;;;17.46;71.05
30949;BME280;17637;51.984;21.208;2023-07-22T01:26:40;99648.34;;;17.37;71.08
30949;BME280;17637;51.984;21.208;2023-07-22T01:29:12;99677.03;;;17.47;71.59
30949;BME280;17637;51.984;21.208;2023-07-22T01:31:47;99662.28;;;17.38;70.89
30949;BME280;17637;51.984;21.208;2023-07-22T01:34:20;99686.06;;;17.45;72.42
30949;BME280;17637;51.984;21.208;2023-07-22T01:36:52;99657.16;;;17.13;73.48
30949;BME280;17637;51.984;21.208;2023-07-22T01:39:25;99678.94;;;17.22;73.54
30949;BME280;17637;51.984;21.208;2023-07-22T01:41:59;99680.28;;;17.18;73.11
30949;BME280;17637;51.984;21.208;2023-07-22T01:44:31;99661.25;;;17.16;72.94
30949;BME280;17637;51.984;21.208;2023-07-22T01:47:03;99652.88;;;17.12;72.71
30949;BME280;17637;51.984;21.208;2023-07-22T01:49:35;99633.22;;;17.08;72.68
30949;BME280;17637;51.984;21.208;2023-07-22T01:52:07;99675.78;;;17.35;72.85
30949;BME280;17637;51.984;21.208;2023-07-22T01:54:39;99608.81;;;16.99;72.40
30949;BME280;17637;51.984;21.208;2023-07-22T01:57:11;99650.00;;;17.38;71.74
30949;BME280;17637;51.984;21.208;2023-07-22T01:59:42;99614.94;;;17.23;71.21
30949;BME280;17637;51.984;21.208;2023-07-22T02:02:14;99609.22;;;17.19;71.76
30949;BME280;17637;51.984;21.208;2023-07-22T02:04:46;99635.59;;;17.26;71.61
30949;BME280;17637;51.984;21.208;2023-07-22T02:07:18;99636.03;;;17.38;71.78
30949;BME280;17637;51.984;21.208;2023-07-22T02:09:50;99649.47;;;17.43;71.63
30949;BME280;17637;51.984;21.208;2023-07-22T02:12:23;99628.38;;;17.28;71.48
30949;BME280;17637;51.984;21.208;2023-07-22T02:14:55;99651.47;;;17.41;71.78
30949;BME280;17637;51.984;21.208;2023-07-22T02:17:27;99636.06;;;17.30;71.44
30949;BME280;17637;51.984;21.208;2023-07-22T02:19:59;99639.50;;;17.30;71.92
30949;BME280;17637;51.984;21.208;2023-07-22T02:22:30;99645.72;;;17.37;71.54
30949;BME280;17637;51.984;21.208;2023-07-22T02:25:02;99639.50;;;17.30;72.26
30949;BME280;17637;51.984;21.208;2023-07-22T02:27:34;99651.63;;;17.40;72.04
30949;BME280;17637;51.984;21.208;2023-07-22T02:30:07;99662.34;;;17.30;72.88
30949;BME280;17637;51.984;21.208;2023-07-22T02:32:42;99653.47;;;17.31;72.42
30949;BME280;17637;51.984;21.208;2023-07-22T02:35:14;99632.66;;;17.21;72.21
30949;BME280;17637;51.984;21.208;2023-07-22T02:37:46;99618.56;;;17.22;71.59
30949;BME280;17637;51.984;21.208;2023-07-22T02:40:18;99657.09;;;17.30;72.92
30949;BME280;17637;51.984;21.208;2023-07-22T02:42:50;99641.16;;;17.31;72.18
30949;BME280;17637;51.984;21.208;2023-07-22T02:45:22;99638.03;;;17.28;72.74
30949;BME280;17637;51.984;21.208;2023-07-22T02:47:53;99637.06;;;17.29;72.21
30949;BME280;17637;51.984;21.208;2023-07-22T02:50:25;99636.88;;;17.30;72.59
30949;BME280;17637;51.984;21.208;2023-07-22T02:52:57;99650.91;;;17.14;73.81
30949;BME280;17637;51.984;21.208;2023-07-22T02:55:29;99627.00;;;17.01;74.38
30949;BME280;17637;51.984;21.208;2023-07-22T02:58:02;99637.97;;;17.13;73.56
30949;BME280;17637;51.984;21.208;2023-07-22T03:00:34;99625.38;;;17.00;73.41
30949;BME280;17637;51.984;21.208;2023-07-22T03:03:05;99653.03;;;17.19;73.33
30949;BME280;17637;51.984;21.208;2023-07-22T03:05:37;99640.44;;;17.06;73.44
30949;BME280;17637;51.984;21.208;2023-07-22T03:08:09;99651.72;;;17.23;72.83
30949;BME280;17637;51.984;21.208;2023-07-22T03:10:41;99641.06;;;17.16;73.02
30949;BME280;17637;51.984;21.208;2023-07-22T03:13:16;99651.34;;;17.26;73.41
30949;BME280;17637;51.984;21.208;2023-07-22T03:15:48;99607.78;;;17.09;73.10
30949;BME280;17637;51.984;21.208;2023-07-22T03:18:19;99617.59;;;17.15;73.26
30949;BME280;17637;51.984;21.208;2023-07-22T03:20:51;99605.94;;;17.17;72.82
30949;BME280;17637;51.984;21.208;2023-07-22T03:23:23;99628.50;;;17.35;72.82
30949;BME280;17637;51.984;21.208;2023-07-22T03:25:55;99618.25;;;17.17;73.36
30949;BME280;17637;51.984;21.208;2023-07-22T03:28:27;99617.56;;;17.23;72.88
30949;BME280;17637;51.984;21.208;2023-07-22T03:30:59;99619.53;;;17.29;72.48
30949;BME280;17637;51.984;21.208;2023-07-22T03:33:30;99612.81;;;17.18;73.11
30949;BME280;17637;51.984;21.208;2023-07-22T03:36:03;99635.94;;;17.23;73.20
30949;BME280;17637;51.984;21.208;2023-07-22T03:38:35;99630.16;;;17.28;72.46
30949;BME280;17637;51.984;21.208;2023-07-22T03:41:07;99617.59;;;17.15;72.77
30949;BME280;17637;51.984;21.208;2023-07-22T03:43:38;99642.84;;;17.24;73.08
30949;BME280;17637;51.984;21.208;2023-07-22T03:46:10;99630.22;;;17.19;73.74
30949;BME280;17637;51.984;21.208;2023-07-22T03:48:42;99643.59;;;17.33;72.45
30949;BME280;17637;51.984;21.208;2023-07-22T03:51:14;99648.66;;;17.43;72.21
30949;BME280;17637;51.984;21.208;2023-07-22T03:53:51;99628.03;;;17.31;72.75
30949;BME280;17637;51.984;21.208;2023-07-22T03:56:23;99633.97;;;17.25;73.61
30949;BME280;17637;51.984;21.208;2023-07-22T03:58:58;99623.19;;;17.12;73.09
30949;BME280;17637;51.984;21.208;2023-07-22T04:01:30;99644.31;;;17.18;73.43
30949;BME280;17637;51.984;21.208;2023-07-22T04:04:02;99633.81;;;17.18;73.32
30949;BME280;17637;51.984;21.208;2023-07-22T04:06:34;99653.03;;;17.19;73.83
30949;BME280;17637;51.984;21.208;2023-07-22T04:09:06;99643.00;;;17.22;73.26
30949;BME280;17637;51.984;21.208;2023-07-22T04:11:38;99621.38;;;17.12;73.06
30949;BME280;17637;51.984;21.208;2023-07-22T04:14:09;99601.06;;;17.06;72.85
30949;BME280;17637;51.984;21.208;2023-07-22T04:16:43;99633.44;;;17.30;73.27
30949;BME280;17637;51.984;21.208;2023-07-22T04:19:15;99640.41;;;17.46;72.61
30949;BME280;17637;51.984;21.208;2023-07-22T04:21:48;99643.19;;;17.52;73.08
30949;BME280;17637;51.984;21.208;2023-07-22T04:24:20;99632.91;;;17.66;72.17
30949;BME280;17637;51.984;21.208;2023-07-22T04:26:52;99639.47;;;17.70;72.50
30949;BME280;17637;51.984;21.208;2023-07-22T04:29:24;99643.97;;;17.84;71.83
30949;BME280;17637;51.984;21.208;2023-07-22T04:31:58;99650.53;;;18.12;71.48
30949;BME280;17637;51.984;21.208;2023-07-22T04:34:31;99658.34;;;18.20;71.14
30949;BME280;17637;51.984;21.208;2023-07-22T04:37:03;99654.16;;;18.11;70.68
30949;BME280;17637;51.984;21.208;2023-07-22T04:39:36;99648.03;;;17.95;72.02
30949;BME280;17637;51.984;21.208;2023-07-22T04:42:08;99644.81;;;18.08;71.31
30949;BME280;17637;51.984;21.208;2023-07-22T04:44:40;99663.00;;;17.95;71.03
30949;BME280;17637;51.984;21.208;2023-07-22T04:47:12;99645.00;;;17.75;71.13
30949;BME280;17637;51.984;21.208;2023-07-22T04:49:44;99659.97;;;17.75;71.49
30949;BME280;17637;51.984;21.208;2023-07-22T04:52:16;99674.50;;;17.94;71.42
30949;BME280;17637;51.984;21.208;2023-07-22T04:54:49;99658.88;;;17.92;71.62
30949;BME280;17637;51.984;21.208;2023-07-22T04:57:21;99668.38;;;18.01;71.10
30949;BME280;17637;51.984;21.208;2023-07-22T04:59:53;99670.41;;;18.14;70.85
30949;BME280;17637;51.984;21.208;2023-07-22T05:02:24;99666.19;;;18.28;70.56
30949;BME280;17637;51.984;21.208;2023-07-22T05:04:57;99672.25;;;18.29;70.27
30949;BME280;17637;51.984;21.208;2023-07-22T05:07:28;99657.06;;;18.16;70.01
30949;BME280;17637;51.984;21.208;2023-07-22T05:10:02;99671.38;;;18.36;69.89
30949;BME280;17637;51.984;21.208;2023-07-22T05:12:33;99650.97;;;18.39;69.50
30949;BME280;17637;51.984;21.208;2023-07-22T05:15:06;99666.66;;;18.47;69.18
30949;BME280;17637;51.984;21.208;2023-07-22T05:17:38;99672.97;;;18.61;68.84
30949;BME280;17637;51.984;21.208;2023-07-22T05:20:10;99669.59;;;18.52;68.38
30949;BME280;17637;51.984;21.208;2023-07-22T05:22:43;99665.16;;;18.67;67.88
30949;BME280;17637;51.984;21.208;2023-07-22T05:25:15;99667.78;;;18.67;67.91
30949;BME280;17637;51.984;21.208;2023-07-22T05:27:47;99667.97;;;18.66;67.77
30949;BME280;17637;51.984;21.208;2023-07-22T05:30:18;99665.00;;;18.69;67.86
30949;BME280;17637;51.984;21.208;2023-07-22T05:33:06;99673.97;;;18.75;68.05
30949;BME280;17637;51.984;21.208;2023-07-22T05:35:38;99628.75;;;18.41;67.76
30949;BME280;17637;51.984;21.208;2023-07-22T05:38:10;99669.25;;;18.70;67.44
30949;BME280;17637;51.984;21.208;2023-07-22T05:40:42;99680.09;;;18.90;66.86
30949;BME280;17637;51.984;21.208;2023-07-22T05:43:15;99689.97;;;19.33;66.22
30949;BME280;17637;51.984;21.208;2023-07-22T05:45:46;99685.78;;;19.39;65.47
30949;BME280;17637;51.984;21.208;2023-07-22T05:48:18;99697.50;;;19.51;65.14
30949;BME280;17637;51.984;21.208;2023-07-22T05:50:50;99681.63;;;19.29;64.44
30949;BME280;17637;51.984;21.208;2023-07-22T05:53:22;99693.63;;;19.68;63.94
30949;BME280;17637;51.984;21.208;2023-07-22T05:55:54;99671.97;;;19.51;63.72
30949;BME280;17637;51.984;21.208;2023-07-22T05:58:26;99700.03;;;19.44;63.35
30949;BME280;17637;51.984;21.208;2023-07-22T06:00:57;99697.72;;;19.71;63.24
30949;BME280;17637;51.984;21.208;2023-07-22T06:03:29;99659.84;;;19.57;62.69
30949;BME280;17637;51.984;21.208;2023-07-22T06:06:01;99698.16;;;19.75;62.81
30949;BME280;17637;51.984;21.208;2023-07-22T06:08:33;99689.38;;;20.04;62.25
30949;BME280;17637;51.984;21.208;2023-07-22T06:11:05;99689.44;;;20.11;61.91
30949;BME280;17637;51.984;21.208;2023-07-22T06:13:37;99713.84;;;20.41;61.62
30949;BME280;17637;51.984;21.208;2023-07-22T06:16:09;99710.31;;;20.12;61.79
30949;BME280;17637;51.984;21.208;2023-07-22T06:18:41;99701.81;;;20.10;61.70
30949;BME280;17637;51.984;21.208;2023-07-22T06:21:13;99682.94;;;20.13;61.04
30949;BME280;17637;51.984;21.208;2023-07-22T06:23:45;99714.94;;;20.25;61.42
30949;BME280;17637;51.984;21.208;2023-07-22T06:26:16;99714.41;;;20.37;61.28
30949;BME280;17637;51.984;21.208;2023-07-22T06:28:50;99719.53;;;20.16;60.40
30949;BME280;17637;51.984;21.208;2023-07-22T06:31:22;99700.41;;;19.93;59.60
30949;BME280;17637;51.984;21.208;2023-07-22T06:33:54;99702.50;;;19.97;60.49
30949;BME280;17637;51.984;21.208;2023-07-22T06:36:26;99731.56;;;20.26;60.13
30949;BME280;17637;51.984;21.208;2023-07-22T06:38:59;99711.53;;;19.88;58.30
30949;BME280;17637;51.984;21.208;2023-07-22T06:41:30;99712.16;;;20.12;58.71
30949;BME280;17637;51.984;21.208;2023-07-22T06:44:02;99701.56;;;20.05;58.96
30949;BME280;17637;51.984;21.208;2023-07-22T06:46:34;99702.25;;;20.14;58.73
30949;BME280;17637;51.984;21.208;2023-07-22T06:49:06;99742.03;;;19.97;57.50
30949;BME280;17637;51.984;21.208;2023-07-22T06:51:38;99723.66;;;20.26;57.14
30949;BME280;17637;51.984;21.208;2023-07-22T06:54:10;99696.72;;;19.72;57.00
30949;BME280;17637;51.984;21.208;2023-07-22T06:56:42;99722.75;;;19.97;56.49
30949;BME280;17637;51.984;21.208;2023-07-22T06:59:13;99736.16;;;20.39;56.54
30949;BME280;17637;51.984;21.208;2023-07-22T07:01:45;99704.03;;;19.92;56.86
30949;BME280;17637;51.984;21.208;2023-07-22T07:04:17;99737.09;;;20.31;56.42
30949;BME280;17637;51.984;21.208;2023-07-22T07:06:50;99704.50;;;19.95;56.70
30949;BME280;17637;51.984;21.208;2023-07-22T07:09:22;99702.59;;;20.11;56.67
30949;BME280;17637;51.984;21.208;2023-07-22T07:11:53;99727.03;;;20.20;56.58
30949;BME280;17637;51.984;21.208;2023-07-22T07:14:28;99711.47;;;20.03;57.92
30949;BME280;17637;51.984;21.208;2023-07-22T07:17:01;99728.53;;;20.07;57.00
30949;BME280;17637;51.984;21.208;2023-07-22T07:19:33;99737.84;;;20.03;57.04
30949;BME280;17637;51.984;21.208;2023-07-22T07:22:05;99748.56;;;20.02;56.77
30949;BME280;17637;51.984;21.208;2023-07-22T07:24:37;99746.53;;;19.82;56.38
30949;BME280;17637;51.984;21.208;2023-07-22T07:27:08;99753.53;;;19.90;56.33
30949;BME280;17637;51.984;21.208;2023-07-22T07:29:40;99729.47;;;19.63;57.08
30949;BME280;17637;51.984;21.208;2023-07-22T07:32:15;99761.38;;;19.83;57.30
30949;BME280;17637;51.984;21.208;2023-07-22T07:34:47;99722.81;;;19.82;57.46
30949;BME280;17637;51.984;21.208;2023-07-22T07:37:19;99756.69;;;20.22;56.26
30949;BME280;17637;51.984;21.208;2023-07-22T07:39:51;99759.59;;;20.27;55.74
30949;BME280;17637;51.984;21.208;2023-07-22T07:42:22;99756.75;;;20.72;56.07
30949;BME280;17637;51.984;21.208;2023-07-22T07:44:54;99764.72;;;20.78;54.99
30949;BME280;17637;51.984;21.208;2023-07-22T07:47:26;99730.13;;;20.45;55.25
30949;BME280;17637;51.984;21.208;2023-07-22T07:49:58;99742.59;;;20.58;55.60
30949;BME280;17637;51.984;21.208;2023-07-22T07:52:30;99764.75;;;20.85;54.58
30949;BME280;17637;51.984;21.208;2023-07-22T07:55:02;99754.69;;;20.95;55.08
30949;BME280;17637;51.984;21.208;2023-07-22T07:57:33;99773.19;;;21.02;54.89
30949;BME280;17637;51.984;21.208;2023-07-22T08:00:06;99763.28;;;20.76;54.05
30949;BME280;17637;51.984;21.208;2023-07-22T08:02:40;99781.50;;;20.71;54.38
30949;BME280;17637;51.984;21.208;2023-07-22T08:05:12;99758.75;;;20.48;54.64
30949;BME280;17637;51.984;21.208;2023-07-22T08:07:44;99782.41;;;20.78;54.20
30949;BME280;17637;51.984;21.208;2023-07-22T08:10:16;99788.44;;;20.72;54.41
30949;BME280;17637;51.984;21.208;2023-07-22T08:12:48;99786.88;;;20.84;54.46
30949;BME280;17637;51.984;21.208;2023-07-22T08:15:20;99788.81;;;20.97;53.16
30949;BME280;17637;51.984;21.208;2023-07-22T08:17:51;99762.84;;;20.72;53.64
30949;BME280;17637;51.984;21.208;2023-07-22T08:20:23;99793.38;;;20.81;53.14
30949;BME280;17637;51.984;21.208;2023-07-22T08:22:55;99797.66;;;21.81;51.99
30949;BME280;17637;51.984;21.208;2023-07-22T08:25:27;99794.00;;;21.82;49.98
30949;BME280;17637;51.984;21.208;2023-07-22T08:27:59;99802.53;;;21.84;50.66
30949;BME280;17637;51.984;21.208;2023-07-22T08:30:31;99794.47;;;22.06;49.60
30949;BME280;17637;51.984;21.208;2023-07-22T08:33:02;99754.13;;;21.42;50.13
30949;BME280;17637;51.984;21.208;2023-07-22T08:35:35;99812.84;;;22.14;49.17
30949;BME280;17637;51.984;21.208;2023-07-22T08:38:08;99785.97;;;22.17;49.44
30949;BME280;17637;51.984;21.208;2023-07-22T08:40:40;99795.34;;;22.26;48.00
30949;BME280;17637;51.984;21.208;2023-07-22T08:43:12;99797.88;;;22.55;45.41
30949;BME280;17637;51.984;21.208;2023-07-22T08:45:44;99808.59;;;21.71;46.88
30949;BME280;17637;51.984;21.208;2023-07-22T08:48:17;99818.91;;;22.01;47.62
30949;BME280;17637;51.984;21.208;2023-07-22T08:50:55;99790.78;;;21.93;47.27
30949;BME280;17637;51.984;21.208;2023-07-22T08:53:29;99808.03;;;21.41;47.49
30949;BME280;17637;51.984;21.208;2023-07-22T08:56:01;99821.25;;;21.83;47.10
30949;BME280;17637;51.984;21.208;2023-07-22T08:58:34;99829.38;;;21.74;47.42
30949;BME280;17637;51.984;21.208;2023-07-22T09:01:06;99813.94;;;21.50;46.75
30949;BME280;17637;51.984;21.208;2023-07-22T09:03:39;99831.56;;;22.19;46.25
30949;BME280;17637;51.984;21.208;2023-07-22T09:06:12;99810.81;;;22.23;46.25
30949;BME280;17637;51.984;21.208;2023-07-22T09:08:45;99795.63;;;22.38;45.75
30949;BME280;17637;51.984;21.208;2023-07-22T09:11:19;99809.25;;;22.69;45.40
30949;BME280;17637;51.984;21.208;2023-07-22T09:13:52;99838.22;;;22.77;44.13
30949;BME280;17637;51.984;21.208;2023-07-22T09:16:26;99818.22;;;23.08;43.83
30949;BME280;17637;51.984;21.208;2023-07-22T09:19:03;99845.75;;;23.00;43.59
30949;BME280;17637;51.984;21.208;2023-07-22T09:21:36;99841.88;;;22.63;43.82
30949;BME280;17637;51.984;21.208;2023-07-22T09:24:20;99845.34;;;23.43;42.86
30949;BME280;17637;51.984;21.208;2023-07-22T09:26:53;99834.16;;;22.94;41.37
30949;BME280;17637;51.984;21.208;2023-07-22T09:29:38;99820.47;;;23.11;41.11
30949;BME280;17637;51.984;21.208;2023-07-22T09:32:11;99839.25;;;23.30;41.29
30949;BME280;17637;51.984;21.208;2023-07-22T09:34:54;99848.38;;;23.47;43.41
30949;BME280;17637;51.984;21.208;2023-07-22T09:37:37;99838.81;;;23.06;42.48
30949;BME280;17637;51.984;21.208;2023-07-22T09:40:23;99845.59;;;23.15;40.07
30949;BME280;17637;51.984;21.208;2023-07-22T09:43:01;99853.59;;;23.74;39.96
30949;BME280;17637;51.984;21.208;2023-07-22T09:45:34;99854.44;;;23.68;39.65
30949;BME280;17637;51.984;21.208;2023-07-22T09:48:08;99844.84;;;23.67;41.43
30949;BME280;17637;51.984;21.208;2023-07-22T09:50:41;99829.94;;;22.25;42.23
30949;BME280;17637;51.984;21.208;2023-07-22T09:53:16;99856.06;;;22.41;42.48
30949;BME280;17637;51.984;21.208;2023-07-22T09:55:48;99846.53;;;22.74;42.41
30949;BME280;17637;51.984;21.208;2023-07-22T09:58:20;99838.22;;;22.77;40.51
30949;BME280;17637;51.984;21.208;2023-07-22T10:00:55;99840.63;;;23.52;41.40
30949;BME280;17637;51.984;21.208;2023-07-22T10:03:29;99835.59;;;23.89;40.34
30949;BME280;17637;51.984;21.208;2023-07-22T10:06:05;99839.13;;;23.77;40.09
30949;BME280;17637;51.984;21.208;2023-07-22T10:08:38;99845.00;;;23.92;39.75
30949;BME280;17637;51.984;21.208;2023-07-22T10:11:11;99847.84;;;23.97;39.14
30949;BME280;17637;51.984;21.208;2023-07-22T10:13:45;99867.75;;;23.48;39.49
30949;BME280;17637;51.984;21.208;2023-07-22T10:16:17;99877.94;;;22.84;39.39
30949;BME280;17637;51.984;21.208;2023-07-22T10:18:49;99847.78;;;23.25;40.65
30949;BME280;17637;51.984;21.208;2023-07-22T10:21:22;99867.97;;;23.39;37.76
30949;BME280;17637;51.984;21.208;2023-07-22T10:23:54;99863.69;;;23.12;37.50
30949;BME280;17637;51.984;21.208;2023-07-22T10:26:28;99871.53;;;23.92;37.31
30949;BME280;17637;51.984;21.208;2023-07-22T10:29:18;99818.44;;;22.86;38.29
30949;BME280;17637;51.984;21.208;2023-07-22T10:31:53;99841.28;;;22.87;39.01
30949;BME280;17637;51.984;21.208;2023-07-22T10:34:25;99852.75;;;23.80;38.27
30949;BME280;17637;51.984;21.208;2023-07-22T10:36:57;99849.59;;;24.17;38.53
30949;BME280;17637;51.984;21.208;2023-07-22T10:39:30;99857.56;;;24.17;37.63
30949;BME280;17637;51.984;21.208;2023-07-22T10:42:03;99840.75;;;23.71;38.30
30949;BME280;17637;51.984;21.208;2023-07-22T10:44:38;99845.94;;;24.11;38.53
30949;BME280;17637;51.984;21.208;2023-07-22T10:47:10;99866.53;;;24.54;38.01
30949;BME280;17637;51.984;21.208;2023-07-22T10:49:44;99863.59;;;24.31;35.65
30949;BME280;17637;51.984;21.208;2023-07-22T10:52:45;99868.88;;;24.37;35.95
30949;BME280;17637;51.984;21.208;2023-07-22T10:55:19;99869.44;;;24.46;35.49
30949;BME280;17637;51.984;21.208;2023-07-22T10:57:54;99864.47;;;24.56;36.00
30949;BME280;17637;51.984;21.208;2023-07-22T11:00:29;99843.50;;;24.10;36.70
30949;BME280;17637;51.984;21.208;2023-07-22T11:03:13;99846.53;;;24.13;36.60
30949;BME280;17637;51.984;21.208;2023-07-22T11:05:51;99860.72;;;24.32;37.14
30949;BME280;17637;51.984;21.208;2023-07-22T11:08:40;99850.72;;;23.82;37.24
30949;BME280;17637;51.984;21.208;2023-07-22T11:11:12;99847.06;;;23.83;37.92
30949;BME280;17637;51.984;21.208;2023-07-22T11:13:44;99840.13;;;23.82;37.51
30949;BME280;17637;51.984;21.208;2023-07-22T11:16:16;99849.66;;;24.42;38.25
30949;BME280;17637;51.984;21.208;2023-07-22T11:18:50;99854.81;;;24.30;37.37
30949;BME280;17637;51.984;21.208;2023-07-22T11:21:22;99862.91;;;24.10;37.44
30949;BME280;17637;51.984;21.208;2023-07-22T11:23:54;99852.84;;;24.83;37.84
30949;BME280;17637;51.984;21.208;2023-07-22T11:26:25;99835.50;;;24.80;35.17
30949;BME280;17637;51.984;21.208;2023-07-22T11:28:59;99864.16;;;24.78;33.93
30949;BME280;17637;51.984;21.208;2023-07-22T11:31:32;99876.94;;;24.88;34.42
30949;BME280;17637;51.984;21.208;2023-07-22T11:34:04;99866.00;;;25.03;33.76
30949;BME280;17637;51.984;21.208;2023-07-22T11:36:36;99872.78;;;25.24;34.19
30949;BME280;17637;51.984;21.208;2023-07-22T11:39:13;99880.22;;;25.15;33.99
30949;BME280;17637;51.984;21.208;2023-07-22T11:41:46;99865.06;;;24.90;35.02
30949;BME280;17637;51.984;21.208;2023-07-22T11:44:20;99842.44;;;25.32;34.62
30949;BME280;17637;51.984;21.208;2023-07-22T11:46:59;99873.91;;;25.10;34.19
30949;BME280;17637;51.984;21.208;2023-07-22T11:49:39;99874.69;;;25.61;35.43
30949;BME280;17637;51.984;21.208;2023-07-22T11:52:16;99871.16;;;25.23;34.95
30949;BME280;17637;51.984;21.208;2023-07-22T11:54:51;99853.94;;;24.75;36.09
30949;BME280;17637;51.984;21.208;2023-07-22T11:57:23;99826.91;;;24.85;36.12
30949;BME280;17637;51.984;21.208;2023-07-22T11:59:56;99845.00;;;23.92;36.12
30949;BME280;17637;51.984;21.208;2023-07-22T12:02:28;99858.09;;;23.73;37.11
30949;BME280;17637;51.984;21.208;2023-07-22T12:05:05;99869.34;;;23.62;37.14
30949;BME280;17637;51.984;21.208;2023-07-22T12:07:38;99831.31;;;23.23;37.10
30949;BME280;17637;51.984;21.208;2023-07-22T12:10:10;99871.19;;;23.48;37.57
30949;BME280;17637;51.984;21.208;2023-07-22T12:12:45;99863.44;;;23.53;36.12
30949;BME280;17637;51.984;21.208;2023-07-22T12:15:22;99871.72;;;23.84;35.24
30949;BME280;17637;51.984;21.208;2023-07-22T12:17:58;99874.06;;;24.57;35.56
30949;BME280;17637;51.984;21.208;2023-07-22T12:20:34;99872.19;;;24.26;35.27
30949;BME280;17637;51.984;21.208;2023-07-22T12:23:07;99853.69;;;24.51;35.82
30949;BME280;17637;51.984;21.208;2023-07-22T12:25:39;99872.53;;;24.75;35.83
30949;BME280;17637;51.984;21.208;2023-07-22T12:28:10;99873.72;;;25.11;34.30
30949;BME280;17637;51.984;21.208;2023-07-22T12:30:42;99875.84;;;25.21;34.92
30949;BME280;17637;51.984;21.208;2023-07-22T12:33:14;99859.97;;;25.40;33.96
30949;BME280;17637;51.984;21.208;2023-07-22T12:35:46;99854.81;;;25.63;33.75
30949;BME280;17637;51.984;21.208;2023-07-22T12:38:18;99860.16;;;25.38;33.12
30949;BME280;17637;51.984;21.208;2023-07-22T12:40:50;99838.41;;;25.22;33.35
30949;BME280;17637;51.984;21.208;2023-07-22T12:43:21;99875.59;;;24.79;33.40
30949;BME280;17637;51.984;21.208;2023-07-22T12:45:53;99862.91;;;24.81;34.13
30949;BME280;17637;51.984;21.208;2023-07-22T12:48:25;99856.06;;;24.28;34.53
30949;BME280;17637;51.984;21.208;2023-07-22T12:50:57;99857.66;;;24.74;33.75
30949;BME280;17637;51.984;21.208;2023-07-22T12:53:29;99859.81;;;25.09;33.63
30949;BME280;17637;51.984;21.208;2023-07-22T12:56:03;99852.34;;;25.43;33.94
30949;BME280;17637;51.984;21.208;2023-07-22T12:58:35;99872.78;;;25.24;32.35
30949;BME280;17637;51.984;21.208;2023-07-22T13:01:07;99841.59;;;25.31;34.09
30949;BME280;17637;51.984;21.208;2023-07-22T13:03:39;99850.84;;;25.29;32.90
30949;BME280;17637;51.984;21.208;2023-07-22T13:06:11;99835.50;;;24.48;32.58
30949;BME280;17637;51.984;21.208;2023-07-22T13:08:43;99865.06;;;24.58;32.43
30949;BME280;17637;51.984;21.208;2023-07-22T13:11:15;99847.69;;;24.63;33.32
30949;BME280;17637;51.984;21.208;2023-07-22T13:13:47;99868.31;;;24.61;32.96
30949;BME280;17637;51.984;21.208;2023-07-22T13:16:19;99828.66;;;24.34;33.55
30949;BME280;17637;51.984;21.208;2023-07-22T13:18:51;99858.03;;;24.39;34.25